sensor_id;sensor_type;location;lat;lon;timestamp;P1;durP1;ratioP1;P2;durP2;ratioP2
3755;SDS011;1893;52.526;13.360;2022-07-04T00:00:07;3.13;;;2.83;;
3755;SDS011;1893;52.526;13.360;2022-07-04T00:02:34;2.93;;;2.73;;
3755;SDS011;1893;52.526;13.360;2022-07-04T00:05:02;2.83;;;2.73;;
3755;SDS011;1893;52.526;13.360;2022-07-04T00:07:27;3.90;;;3.43;;
3755;SDS011;1893;52.526;13.360;2022-07-04T00:09:53;5.30;;;3.50;;
3755;SDS011;1893;52.526;13.360;2022-07-04T00:12:19;4.53;;;3.90;;
3755;SDS011;1893;52.526;13.360;2022-07-04T00:14:44;3.63;;;3.33;;
3755;SDS011;1893;52.526;13.360;2022-07-04T00:17:10;8.17;;;4.50;;
3755;SDS011;1893;52.526;13.360;2022-07-04T00:19:36;4.30;;;3.90;;
3755;SDS011;1893;52.526;13.360;2022-07-04T00:22:01;5.27;;;3.40;;
3755;SDS011;1893;52.526;13.360;2022-07-04T00:24:27;4.87;;;3.23;;
3755;SDS011;1893;52.526;13.360;2022-07-04T00:26:52;4.30;;;2.93;;
3755;SDS011;1893;52.526;13.360;2022-07-04T00:29:18;3.37;;;3.17;;
3755;SDS011;1893;52.526;13.360;2022-07-04T00:31:44;4.63;;;3.80;;
3755;SDS011;1893;52.526;13.360;2022-07-04T00:34:09;5.70;;;3.70;;
3755;SDS011;1893;52.526;13.360;2022-07-04T00:36:35;4.33;;;3.40;;
3755;SDS011;1893;52.526;13.360;2022-07-04T00:39:01;3.60;;;3.40;;
3755;SDS011;1893;52.526;13.360;2022-07-04T00:41:27;3.37;;;2.97;;
3755;SDS011;1893;52.526;13.360;2022-07-04T00:44:02;2.50;;;2.40;;
3755;SDS011;1893;52.526;13.360;2022-07-04T00:46:32;3.10;;;2.77;;
3755;SDS011;1893;52.526;13.360;2022-07-04T00:48:58;3.90;;;3.70;;
3755;SDS011;1893;52.526;13.360;2022-07-04T00:51:25;3.20;;;3.00;;
3755;SDS011;1893;52.526;13.360;2022-07-04T00:53:52;4.70;;;3.30;;
3755;SDS011;1893;52.526;13.360;2022-07-04T00:56:19;3.20;;;3.00;;
3755;SDS011;1893;52.526;13.360;2022-07-04T00:58:45;3.53;;;3.33;;
3755;SDS011;1893;52.526;13.360;2022-07-04T01:01:11;3.47;;;2.87;;
3755;SDS011;1893;52.526;13.360;2022-07-04T01:03:36;3.43;;;3.23;;
3755;SDS011;1893;52.526;13.360;2022-07-04T01:06:02;4.97;;;3.70;;
3755;SDS011;1893;52.526;13.360;2022-07-04T01:08:28;3.77;;;3.57;;
3755;SDS011;1893;52.526;13.360;2022-07-04T01:10:53;3.73;;;3.53;;
3755;SDS011;1893;52.526;13.360;2022-07-04T01:13:20;4.03;;;3.73;;
3755;SDS011;1893;52.526;13.360;2022-07-04T01:15:49;3.87;;;3.67;;
3755;SDS011;1893;52.526;13.360;2022-07-04T01:18:18;3.30;;;3.10;;
3755;SDS011;1893;52.526;13.360;2022-07-04T01:20:44;3.77;;;3.47;;
3755;SDS011;1893;52.526;13.360;2022-07-04T01:23:09;3.97;;;3.67;;
3755;SDS011;1893;52.526;13.360;2022-07-04T01:25:35;3.23;;;3.03;;
3755;SDS011;1893;52.526;13.360;2022-07-04T01:28:01;3.30;;;3.03;;
3755;SDS011;1893;52.526;13.360;2022-07-04T01:30:28;5.50;;;3.53;;
3755;SDS011;1893;52.526;13.360;2022-07-04T01:32:54;7.53;;;3.67;;
3755;SDS011;1893;52.526;13.360;2022-07-04T01:35:20;3.93;;;3.57;;
3755;SDS011;1893;52.526;13.360;2022-07-04T01:37:47;5.23;;;3.73;;
3755;SDS011;1893;52.526;13.360;2022-07-04T01:40:12;4.47;;;4.10;;
3755;SDS011;1893;52.526;13.360;2022-07-04T01:42:38;6.97;;;4.03;;
3755;SDS011;1893;52.526;13.360;2022-07-04T01:45:05;4.13;;;3.83;;
3755;SDS011;1893;52.526;13.360;2022-07-04T01:47:32;5.20;;;4.37;;
3755;SDS011;1893;52.526;13.360;2022-07-04T01:49:58;10.53;;;4.30;;
3755;SDS011;1893;52.526;13.360;2022-07-04T01:52:23;3.63;;;3.33;;
3755;SDS011;1893;52.526;13.360;2022-07-04T01:54:49;4.80;;;4.40;;
3755;SDS011;1893;52.526;13.360;2022-07-04T01:57:14;4.93;;;4.53;;
3755;SDS011;1893;52.526;13.360;2022-07-04T01:59:40;4.60;;;4.20;;
3755;SDS011;1893;52.526;13.360;2022-07-04T02:02:24;5.20;;;4.87;;
3755;SDS011;1893;52.526;13.360;2022-07-04T02:04:50;5.80;;;5.20;;
3755;SDS011;1893;52.526;13.360;2022-07-04T02:07:15;5.53;;;5.03;;
3755;SDS011;1893;52.526;13.360;2022-07-04T02:09:41;7.50;;;6.80;;
3755;SDS011;1893;52.526;13.360;2022-07-04T02:12:07;10.10;;;7.33;;
3755;SDS011;1893;52.526;13.360;2022-07-04T02:14:51;7.07;;;6.37;;
3755;SDS011;1893;52.526;13.360;2022-07-04T02:17:17;7.87;;;7.17;;
3755;SDS011;1893;52.526;13.360;2022-07-04T02:19:42;8.47;;;7.17;;
3755;SDS011;1893;52.526;13.360;2022-07-04T02:22:08;8.63;;;7.77;;
3755;SDS011;1893;52.526;13.360;2022-07-04T02:24:34;8.87;;;7.70;;
3755;SDS011;1893;52.526;13.360;2022-07-04T02:26:59;8.43;;;7.83;;
3755;SDS011;1893;52.526;13.360;2022-07-04T02:29:25;9.23;;;8.47;;
3755;SDS011;1893;52.526;13.360;2022-07-04T02:31:51;9.50;;;8.80;;
3755;SDS011;1893;52.526;13.360;2022-07-04T02:34:16;10.43;;;9.57;;
3755;SDS011;1893;52.526;13.360;2022-07-04T02:36:42;9.97;;;8.97;;
3755;SDS011;1893;52.526;13.360;2022-07-04T02:39:07;12.50;;;8.53;;
3755;SDS011;1893;52.526;13.360;2022-07-04T02:41:33;8.80;;;8.00;;
3755;SDS011;1893;52.526;13.360;2022-07-04T02:43:59;10.40;;;8.90;;
3755;SDS011;1893;52.526;13.360;2022-07-04T02:46:24;9.27;;;8.23;;
3755;SDS011;1893;52.526;13.360;2022-07-04T02:48:50;10.10;;;9.30;;
3755;SDS011;1893;52.526;13.360;2022-07-04T02:51:16;10.67;;;9.23;;
3755;SDS011;1893;52.526;13.360;2022-07-04T02:53:41;10.30;;;9.50;;
3755;SDS011;1893;52.526;13.360;2022-07-04T02:56:07;9.47;;;8.50;;
3755;SDS011;1893;52.526;13.360;2022-07-04T02:58:33;10.40;;;9.50;;
3755;SDS011;1893;52.526;13.360;2022-07-04T03:00:58;9.80;;;8.90;;
3755;SDS011;1893;52.526;13.360;2022-07-04T03:03:24;11.03;;;10.13;;
3755;SDS011;1893;52.526;13.360;2022-07-04T03:05:50;10.93;;;9.93;;
3755;SDS011;1893;52.526;13.360;2022-07-04T03:08:15;10.03;;;9.10;;
3755;SDS011;1893;52.526;13.360;2022-07-04T03:10:41;11.60;;;10.50;;
3755;SDS011;1893;52.526;13.360;2022-07-04T03:13:06;11.13;;;9.97;;
3755;SDS011;1893;52.526;13.360;2022-07-04T03:15:32;10.20;;;9.40;;
3755;SDS011;1893;52.526;13.360;2022-07-04T03:17:57;9.97;;;8.97;;
3755;SDS011;1893;52.526;13.360;2022-07-04T03:20:23;10.97;;;9.27;;
3755;SDS011;1893;52.526;13.360;2022-07-04T03:22:48;12.20;;;9.63;;
3755;SDS011;1893;52.526;13.360;2022-07-04T03:25:15;10.70;;;9.90;;
3755;SDS011;1893;52.526;13.360;2022-07-04T03:27:41;11.53;;;10.40;;
3755;SDS011;1893;52.526;13.360;2022-07-04T03:30:06;12.37;;;11.00;;
3755;SDS011;1893;52.526;13.360;2022-07-04T03:32:32;11.43;;;10.40;;
3755;SDS011;1893;52.526;13.360;2022-07-04T03:34:57;12.37;;;11.17;;
3755;SDS011;1893;52.526;13.360;2022-07-04T03:37:23;13.53;;;10.00;;
3755;SDS011;1893;52.526;13.360;2022-07-04T03:39:48;11.60;;;10.57;;
3755;SDS011;1893;52.526;13.360;2022-07-04T03:42:14;12.37;;;11.10;;
3755;SDS011;1893;52.526;13.360;2022-07-04T03:44:40;11.97;;;11.00;;
3755;SDS011;1893;52.526;13.360;2022-07-04T03:47:05;13.83;;;10.80;;
3755;SDS011;1893;52.526;13.360;2022-07-04T03:49:31;11.30;;;10.40;;
3755;SDS011;1893;52.526;13.360;2022-07-04T03:51:56;12.60;;;11.63;;
3755;SDS011;1893;52.526;13.360;2022-07-04T03:54:22;10.23;;;9.37;;
3755;SDS011;1893;52.526;13.360;2022-07-04T03:56:47;13.87;;;10.50;;
3755;SDS011;1893;52.526;13.360;2022-07-04T03:59:13;10.20;;;9.00;;
3755;SDS011;1893;52.526;13.360;2022-07-04T04:01:38;13.97;;;10.90;;
3755;SDS011;1893;52.526;13.360;2022-07-04T04:04:04;11.80;;;10.70;;
3755;SDS011;1893;52.526;13.360;2022-07-04T04:06:48;10.60;;;9.50;;
3755;SDS011;1893;52.526;13.360;2022-07-04T04:09:13;11.37;;;10.50;;
3755;SDS011;1893;52.526;13.360;2022-07-04T04:11:43;12.07;;;10.87;;
3755;SDS011;1893;52.526;13.360;2022-07-04T04:14:08;12.10;;;11.10;;
3755;SDS011;1893;52.526;13.360;2022-07-04T04:16:35;13.00;;;11.80;;
3755;SDS011;1893;52.526;13.360;2022-07-04T04:19:00;13.00;;;11.80;;
3755;SDS011;1893;52.526;13.360;2022-07-04T04:21:26;11.93;;;10.97;;
3755;SDS011;1893;52.526;13.360;2022-07-04T04:23:51;13.40;;;12.13;;
3755;SDS011;1893;52.526;13.360;2022-07-04T04:26:17;13.33;;;12.23;;
3755;SDS011;1893;52.526;13.360;2022-07-04T04:28:42;12.43;;;11.33;;
3755;SDS011;1893;52.526;13.360;2022-07-04T04:31:08;15.43;;;13.07;;
3755;SDS011;1893;52.526;13.360;2022-07-04T04:33:34;12.07;;;10.97;;
3755;SDS011;1893;52.526;13.360;2022-07-04T04:36:00;13.20;;;11.97;;
3755;SDS011;1893;52.526;13.360;2022-07-04T04:38:26;11.23;;;10.23;;
3755;SDS011;1893;52.526;13.360;2022-07-04T04:40:51;12.63;;;11.63;;
3755;SDS011;1893;52.526;13.360;2022-07-04T04:43:17;13.07;;;11.97;;
3755;SDS011;1893;52.526;13.360;2022-07-04T04:45:43;13.03;;;11.10;;
3755;SDS011;1893;52.526;13.360;2022-07-04T04:48:08;12.30;;;11.00;;
3755;SDS011;1893;52.526;13.360;2022-07-04T04:50:34;11.73;;;10.60;;
3755;SDS011;1893;52.526;13.360;2022-07-04T04:53:00;10.50;;;9.50;;
3755;SDS011;1893;52.526;13.360;2022-07-04T04:55:26;11.83;;;10.73;;
3755;SDS011;1893;52.526;13.360;2022-07-04T04:57:52;15.73;;;10.97;;
3755;SDS011;1893;52.526;13.360;2022-07-04T05:00:17;10.50;;;9.70;;
3755;SDS011;1893;52.526;13.360;2022-07-04T05:02:44;9.97;;;9.17;;
3755;SDS011;1893;52.526;13.360;2022-07-04T05:05:09;9.50;;;8.57;;
3755;SDS011;1893;52.526;13.360;2022-07-04T05:07:35;9.50;;;8.60;;
3755;SDS011;1893;52.526;13.360;2022-07-04T05:10:01;9.17;;;8.33;;
3755;SDS011;1893;52.526;13.360;2022-07-04T05:12:28;9.77;;;8.87;;
3755;SDS011;1893;52.526;13.360;2022-07-04T05:14:53;7.90;;;7.30;;
3755;SDS011;1893;52.526;13.360;2022-07-04T05:17:19;10.23;;;7.90;;
3755;SDS011;1893;52.526;13.360;2022-07-04T05:19:45;8.00;;;7.30;;
3755;SDS011;1893;52.526;13.360;2022-07-04T05:22:10;7.20;;;6.50;;
3755;SDS011;1893;52.526;13.360;2022-07-04T05:24:36;6.40;;;5.90;;
3755;SDS011;1893;52.526;13.360;2022-07-04T05:27:05;7.13;;;6.50;;
3755;SDS011;1893;52.526;13.360;2022-07-04T05:29:32;6.47;;;5.90;;
3755;SDS011;1893;52.526;13.360;2022-07-04T05:31:57;7.23;;;6.77;;
3755;SDS011;1893;52.526;13.360;2022-07-04T05:34:23;8.60;;;5.83;;
3755;SDS011;1893;52.526;13.360;2022-07-04T05:36:48;6.30;;;5.80;;
3755;SDS011;1893;52.526;13.360;2022-07-04T05:39:14;6.67;;;6.17;;
3755;SDS011;1893;52.526;13.360;2022-07-04T05:41:40;7.33;;;6.60;;
3755;SDS011;1893;52.526;13.360;2022-07-04T05:44:05;6.33;;;5.80;;
3755;SDS011;1893;52.526;13.360;2022-07-04T05:46:31;5.67;;;5.27;;
3755;SDS011;1893;52.526;13.360;2022-07-04T05:48:56;6.43;;;5.93;;
3755;SDS011;1893;52.526;13.360;2022-07-04T05:51:22;5.83;;;4.77;;
3755;SDS011;1893;52.526;13.360;2022-07-04T05:53:47;5.00;;;4.70;;
3755;SDS011;1893;52.526;13.360;2022-07-04T05:56:13;5.40;;;4.80;;
3755;SDS011;1893;52.526;13.360;2022-07-04T05:58:39;4.80;;;4.43;;
3755;SDS011;1893;52.526;13.360;2022-07-04T06:01:05;5.17;;;4.87;;
3755;SDS011;1893;52.526;13.360;2022-07-04T06:03:31;4.93;;;4.60;;
3755;SDS011;1893;52.526;13.360;2022-07-04T06:05:57;4.27;;;4.03;;
3755;SDS011;1893;52.526;13.360;2022-07-04T06:08:22;4.10;;;3.90;;
3755;SDS011;1893;52.526;13.360;2022-07-04T06:10:48;6.07;;;4.40;;
3755;SDS011;1893;52.526;13.360;2022-07-04T06:13:14;4.13;;;3.83;;
3755;SDS011;1893;52.526;13.360;2022-07-04T06:15:40;5.63;;;3.20;;
3755;SDS011;1893;52.526;13.360;2022-07-04T06:18:06;4.80;;;3.57;;
3755;SDS011;1893;52.526;13.360;2022-07-04T06:20:31;2.70;;;2.50;;
3755;SDS011;1893;52.526;13.360;2022-07-04T06:22:57;4.50;;;2.83;;
3755;SDS011;1893;52.526;13.360;2022-07-04T06:25:23;2.90;;;2.10;;
3755;SDS011;1893;52.526;13.360;2022-07-04T06:27:49;2.80;;;2.60;;
3755;SDS011;1893;52.526;13.360;2022-07-04T06:30:16;2.07;;;1.90;;
3755;SDS011;1893;52.526;13.360;2022-07-04T06:32:49;2.60;;;1.93;;
3755;SDS011;1893;52.526;13.360;2022-07-04T06:35:17;2.60;;;2.23;;
3755;SDS011;1893;52.526;13.360;2022-07-04T06:38:05;3.20;;;1.70;;
3755;SDS011;1893;52.526;13.360;2022-07-04T06:40:31;1.67;;;1.50;;
3755;SDS011;1893;52.526;13.360;2022-07-04T06:42:56;1.47;;;1.30;;
3755;SDS011;1893;52.526;13.360;2022-07-04T06:45:22;3.07;;;2.00;;
3755;SDS011;1893;52.526;13.360;2022-07-04T06:47:48;5.13;;;1.50;;
3755;SDS011;1893;52.526;13.360;2022-07-04T06:50:13;1.90;;;1.80;;
3755;SDS011;1893;52.526;13.360;2022-07-04T06:52:39;1.73;;;1.53;;
3755;SDS011;1893;52.526;13.360;2022-07-04T06:55:05;1.40;;;1.30;;
3755;SDS011;1893;52.526;13.360;2022-07-04T06:57:32;1.53;;;1.43;;
3755;SDS011;1893;52.526;13.360;2022-07-04T06:59:57;1.60;;;1.20;;
3755;SDS011;1893;52.526;13.360;2022-07-04T07:02:23;3.50;;;1.27;;
3755;SDS011;1893;52.526;13.360;2022-07-04T07:04:48;1.57;;;1.40;;
3755;SDS011;1893;52.526;13.360;2022-07-04T07:07:14;1.60;;;1.27;;
3755;SDS011;1893;52.526;13.360;2022-07-04T07:09:39;2.07;;;1.30;;
3755;SDS011;1893;52.526;13.360;2022-07-04T07:12:05;4.37;;;1.40;;
3755;SDS011;1893;52.526;13.360;2022-07-04T07:14:31;1.40;;;1.10;;
3755;SDS011;1893;52.526;13.360;2022-07-04T07:16:56;3.37;;;1.27;;
3755;SDS011;1893;52.526;13.360;2022-07-04T07:19:22;2.00;;;1.20;;
3755;SDS011;1893;52.526;13.360;2022-07-04T07:21:47;1.70;;;1.40;;
3755;SDS011;1893;52.526;13.360;2022-07-04T07:24:13;4.13;;;1.30;;
3755;SDS011;1893;52.526;13.360;2022-07-04T07:26:38;2.13;;;1.50;;
3755;SDS011;1893;52.526;13.360;2022-07-04T07:29:04;4.80;;;1.30;;
3755;SDS011;1893;52.526;13.360;2022-07-04T07:31:30;2.93;;;1.30;;
3755;SDS011;1893;52.526;13.360;2022-07-04T07:33:56;2.30;;;1.20;;
3755;SDS011;1893;52.526;13.360;2022-07-04T07:36:22;3.60;;;1.10;;
3755;SDS011;1893;52.526;13.360;2022-07-04T07:38:47;1.63;;;1.13;;
3755;SDS011;1893;52.526;13.360;2022-07-04T07:41:13;1.97;;;1.20;;
3755;SDS011;1893;52.526;13.360;2022-07-04T07:43:39;2.40;;;1.30;;
3755;SDS011;1893;52.526;13.360;2022-07-04T07:46:05;2.17;;;1.37;;
3755;SDS011;1893;52.526;13.360;2022-07-04T07:48:32;2.23;;;1.20;;
3755;SDS011;1893;52.526;13.360;2022-07-04T07:50:58;4.40;;;1.20;;
3755;SDS011;1893;52.526;13.360;2022-07-04T07:53:23;1.97;;;1.20;;
3755;SDS011;1893;52.526;13.360;2022-07-04T07:55:49;3.87;;;1.33;;
3755;SDS011;1893;52.526;13.360;2022-07-04T07:58:15;3.53;;;1.20;;
3755;SDS011;1893;52.526;13.360;2022-07-04T08:00:40;4.40;;;4.00;;
3755;SDS011;1893;52.526;13.360;2022-07-04T08:03:06;2.27;;;1.23;;
3755;SDS011;1893;52.526;13.360;2022-07-04T08:05:52;1.30;;;1.10;;
3755;SDS011;1893;52.526;13.360;2022-07-04T08:08:18;2.97;;;1.33;;
3755;SDS011;1893;52.526;13.360;2022-07-04T08:10:43;2.70;;;1.10;;
3755;SDS011;1893;52.526;13.360;2022-07-04T08:13:09;1.07;;;1.03;;
3755;SDS011;1893;52.526;13.360;2022-07-04T08:15:35;3.43;;;1.00;;
3755;SDS011;1893;52.526;13.360;2022-07-04T08:18:01;3.03;;;1.33;;
3755;SDS011;1893;52.526;13.360;2022-07-04T08:20:26;1.33;;;1.10;;
3755;SDS011;1893;52.526;13.360;2022-07-04T08:22:52;1.93;;;1.07;;
3755;SDS011;1893;52.526;13.360;2022-07-04T08:25:17;3.03;;;0.90;;
3755;SDS011;1893;52.526;13.360;2022-07-04T08:27:43;2.40;;;1.10;;
3755;SDS011;1893;52.526;13.360;2022-07-04T08:30:09;6.10;;;1.20;;
3755;SDS011;1893;52.526;13.360;2022-07-04T08:32:35;2.83;;;1.20;;
3755;SDS011;1893;52.526;13.360;2022-07-04T08:35:01;0.93;;;0.90;;
3755;SDS011;1893;52.526;13.360;2022-07-04T08:37:28;1.70;;;1.07;;
3755;SDS011;1893;52.526;13.360;2022-07-04T08:39:54;6.50;;;1.47;;
3755;SDS011;1893;52.526;13.360;2022-07-04T08:42:20;7.73;;;1.40;;
3755;SDS011;1893;52.526;13.360;2022-07-04T08:44:50;3.07;;;1.40;;
3755;SDS011;1893;52.526;13.360;2022-07-04T08:47:21;3.93;;;1.20;;
3755;SDS011;1893;52.526;13.360;2022-07-04T08:49:58;4.27;;;1.10;;
3755;SDS011;1893;52.526;13.360;2022-07-04T08:52:35;5.03;;;1.67;;
3755;SDS011;1893;52.526;13.360;2022-07-04T08:55:05;2.30;;;1.33;;
3755;SDS011;1893;52.526;13.360;2022-07-04T08:57:50;5.73;;;1.20;;
3755;SDS011;1893;52.526;13.360;2022-07-04T09:00:35;4.43;;;1.23;;
3755;SDS011;1893;52.526;13.360;2022-07-04T09:03:02;2.03;;;1.50;;
3755;SDS011;1893;52.526;13.360;2022-07-04T09:05:29;1.40;;;1.30;;
3755;SDS011;1893;52.526;13.360;2022-07-04T09:07:57;5.13;;;1.47;;
3755;SDS011;1893;52.526;13.360;2022-07-04T09:10:23;1.57;;;1.00;;
3755;SDS011;1893;52.526;13.360;2022-07-04T09:12:49;2.47;;;1.23;;
3755;SDS011;1893;52.526;13.360;2022-07-04T09:15:15;2.60;;;1.50;;
3755;SDS011;1893;52.526;13.360;2022-07-04T09:17:41;4.33;;;1.30;;
3755;SDS011;1893;52.526;13.360;2022-07-04T09:20:14;2.50;;;1.20;;
3755;SDS011;1893;52.526;13.360;2022-07-04T09:22:44;1.40;;;1.30;;
3755;SDS011;1893;52.526;13.360;2022-07-04T09:25:10;1.50;;;1.23;;
3755;SDS011;1893;52.526;13.360;2022-07-04T09:27:40;1.50;;;1.40;;
3755;SDS011;1893;52.526;13.360;2022-07-04T09:30:10;2.93;;;1.20;;
3755;SDS011;1893;52.526;13.360;2022-07-04T09:35:04;3.30;;;1.30;;
3755;SDS011;1893;52.526;13.360;2022-07-04T09:37:35;2.90;;;1.47;;
3755;SDS011;1893;52.526;13.360;2022-07-04T09:40:04;1.30;;;1.20;;
3755;SDS011;1893;52.526;13.360;2022-07-04T09:42:37;3.50;;;1.50;;
3755;SDS011;1893;52.526;13.360;2022-07-04T09:45:04;4.37;;;1.33;;
3755;SDS011;1893;52.526;13.360;2022-07-04T09:47:31;1.60;;;1.30;;
3755;SDS011;1893;52.526;13.360;2022-07-04T09:50:01;6.93;;;1.20;;
3755;SDS011;1893;52.526;13.360;2022-07-04T09:52:29;1.20;;;1.10;;
3755;SDS011;1893;52.526;13.360;2022-07-04T09:55:02;3.00;;;1.17;;
3755;SDS011;1893;52.526;13.360;2022-07-04T09:57:30;2.93;;;1.60;;
3755;SDS011;1893;52.526;13.360;2022-07-04T10:00:15;3.67;;;1.20;;
3755;SDS011;1893;52.526;13.360;2022-07-04T10:02:49;5.10;;;1.07;;
3755;SDS011;1893;52.526;13.360;2022-07-04T10:05:22;1.50;;;0.90;;
3755;SDS011;1893;52.526;13.360;2022-07-04T10:07:53;5.30;;;1.20;;
3755;SDS011;1893;52.526;13.360;2022-07-04T10:13:02;1.23;;;0.90;;
3755;SDS011;1893;52.526;13.360;2022-07-04T10:15:30;3.43;;;0.90;;
3755;SDS011;1893;52.526;13.360;2022-07-04T10:17:56;5.03;;;1.23;;
3755;SDS011;1893;52.526;13.360;2022-07-04T10:20:22;1.80;;;1.03;;
3755;SDS011;1893;52.526;13.360;2022-07-04T10:22:48;1.00;;;0.90;;
3755;SDS011;1893;52.526;13.360;2022-07-04T10:25:14;2.70;;;1.60;;
3755;SDS011;1893;52.526;13.360;2022-07-04T10:27:41;1.30;;;1.20;;
3755;SDS011;1893;52.526;13.360;2022-07-04T10:30:07;2.30;;;1.10;;
3755;SDS011;1893;52.526;13.360;2022-07-04T10:32:37;1.43;;;1.10;;
3755;SDS011;1893;52.526;13.360;2022-07-04T10:35:04;3.37;;;1.20;;
3755;SDS011;1893;52.526;13.360;2022-07-04T10:48:30;2.10;;;1.10;;
3755;SDS011;1893;52.526;13.360;2022-07-04T10:50:58;2.63;;;1.30;;
3755;SDS011;1893;52.526;13.360;2022-07-04T10:53:23;1.00;;;0.90;;
3755;SDS011;1893;52.526;13.360;2022-07-04T10:55:49;1.20;;;1.10;;
3755;SDS011;1893;52.526;13.360;2022-07-04T10:58:35;1.33;;;1.23;;
3755;SDS011;1893;52.526;13.360;2022-07-04T11:01:10;3.20;;;1.30;;
3755;SDS011;1893;52.526;13.360;2022-07-04T11:03:46;3.70;;;1.00;;
3755;SDS011;1893;52.526;13.360;2022-07-04T11:11:47;1.60;;;1.10;;
3755;SDS011;1893;52.526;13.360;2022-07-04T11:17:02;1.73;;;1.10;;
3755;SDS011;1893;52.526;13.360;2022-07-04T11:19:32;1.67;;;1.10;;
3755;SDS011;1893;52.526;13.360;2022-07-04T11:21:58;1.10;;;1.00;;
3755;SDS011;1893;52.526;13.360;2022-07-04T11:24:24;1.50;;;1.37;;
3755;SDS011;1893;52.526;13.360;2022-07-04T11:26:50;2.10;;;1.17;;
3755;SDS011;1893;52.526;13.360;2022-07-04T11:29:16;3.53;;;1.17;;
3755;SDS011;1893;52.526;13.360;2022-07-04T11:31:47;1.30;;;1.10;;
3755;SDS011;1893;52.526;13.360;2022-07-04T11:34:14;1.10;;;1.00;;
3755;SDS011;1893;52.526;13.360;2022-07-04T11:36:41;3.53;;;1.10;;
3755;SDS011;1893;52.526;13.360;2022-07-04T11:39:12;1.93;;;1.30;;
3755;SDS011;1893;52.526;13.360;2022-07-04T11:41:44;1.87;;;1.30;;
3755;SDS011;1893;52.526;13.360;2022-07-04T11:44:42;1.63;;;1.40;;
3755;SDS011;1893;52.526;13.360;2022-07-04T11:47:36;4.90;;;1.50;;
3755;SDS011;1893;52.526;13.360;2022-07-04T11:50:07;2.10;;;1.00;;
3755;SDS011;1893;52.526;13.360;2022-07-04T11:55:08;1.40;;;1.20;;
3755;SDS011;1893;52.526;13.360;2022-07-04T11:57:39;1.63;;;1.50;;
3755;SDS011;1893;52.526;13.360;2022-07-04T12:00:07;1.67;;;1.20;;
3755;SDS011;1893;52.526;13.360;2022-07-04T12:02:33;1.83;;;1.23;;
3755;SDS011;1893;52.526;13.360;2022-07-04T12:05:00;1.30;;;1.20;;
3755;SDS011;1893;52.526;13.360;2022-07-04T12:07:28;6.73;;;1.10;;
3755;SDS011;1893;52.526;13.360;2022-07-04T12:10:05;1.40;;;1.00;;
3755;SDS011;1893;52.526;13.360;2022-07-04T12:12:52;1.87;;;1.10;;
3755;SDS011;1893;52.526;13.360;2022-07-04T12:15:18;2.13;;;1.00;;
3755;SDS011;1893;52.526;13.360;2022-07-04T12:17:44;2.50;;;1.10;;
3755;SDS011;1893;52.526;13.360;2022-07-04T12:20:12;3.63;;;1.00;;
3755;SDS011;1893;52.526;13.360;2022-07-04T12:22:40;1.63;;;1.07;;
3755;SDS011;1893;52.526;13.360;2022-07-04T12:25:07;5.10;;;1.37;;
3755;SDS011;1893;52.526;13.360;2022-07-04T12:27:51;1.67;;;1.10;;
3755;SDS011;1893;52.526;13.360;2022-07-04T12:30:17;1.63;;;1.10;;
3755;SDS011;1893;52.526;13.360;2022-07-04T12:32:43;1.10;;;0.80;;
3755;SDS011;1893;52.526;13.360;2022-07-04T12:35:10;4.00;;;1.00;;
3755;SDS011;1893;52.526;13.360;2022-07-04T12:40:32;1.17;;;1.07;;
3755;SDS011;1893;52.526;13.360;2022-07-04T12:42:58;1.40;;;1.20;;
3755;SDS011;1893;52.526;13.360;2022-07-04T12:45:25;1.00;;;0.90;;
3755;SDS011;1893;52.526;13.360;2022-07-04T12:47:51;1.20;;;1.10;;
3755;SDS011;1893;52.526;13.360;2022-07-04T12:50:26;1.00;;;0.90;;
3755;SDS011;1893;52.526;13.360;2022-07-04T12:52:52;1.10;;;0.90;;
3755;SDS011;1893;52.526;13.360;2022-07-04T12:55:17;2.43;;;0.90;;
3755;SDS011;1893;52.526;13.360;2022-07-04T12:57:43;1.67;;;0.80;;
3755;SDS011;1893;52.526;13.360;2022-07-04T13:00:09;1.17;;;1.07;;
3755;SDS011;1893;52.526;13.360;2022-07-04T13:02:35;1.87;;;1.20;;
3755;SDS011;1893;52.526;13.360;2022-07-04T13:05:00;1.13;;;0.90;;
3755;SDS011;1893;52.526;13.360;2022-07-04T13:07:26;4.80;;;1.23;;
3755;SDS011;1893;52.526;13.360;2022-07-04T13:09:51;1.30;;;1.00;;
3755;SDS011;1893;52.526;13.360;2022-07-04T13:12:17;0.93;;;0.87;;
3755;SDS011;1893;52.526;13.360;2022-07-04T13:14:56;1.83;;;0.90;;
3755;SDS011;1893;52.526;13.360;2022-07-04T13:17:24;3.03;;;0.90;;
3755;SDS011;1893;52.526;13.360;2022-07-04T13:19:50;2.90;;;1.10;;
3755;SDS011;1893;52.526;13.360;2022-07-04T13:22:21;2.80;;;1.00;;
3755;SDS011;1893;52.526;13.360;2022-07-04T13:24:48;4.33;;;1.43;;
3755;SDS011;1893;52.526;13.360;2022-07-04T13:27:15;2.07;;;0.90;;
3755;SDS011;1893;52.526;13.360;2022-07-04T13:29:44;0.97;;;0.90;;
3755;SDS011;1893;52.526;13.360;2022-07-04T13:32:09;1.20;;;0.90;;
3755;SDS011;1893;52.526;13.360;2022-07-04T13:34:35;2.30;;;1.00;;
3755;SDS011;1893;52.526;13.360;2022-07-04T13:37:01;0.90;;;0.80;;
3755;SDS011;1893;52.526;13.360;2022-07-04T13:39:27;2.40;;;1.17;;
3755;SDS011;1893;52.526;13.360;2022-07-04T13:41:52;0.80;;;0.80;;
3755;SDS011;1893;52.526;13.360;2022-07-04T13:44:18;1.10;;;1.00;;
3755;SDS011;1893;52.526;13.360;2022-07-04T13:46:43;1.23;;;0.90;;
3755;SDS011;1893;52.526;13.360;2022-07-04T13:49:09;1.00;;;0.90;;
3755;SDS011;1893;52.526;13.360;2022-07-04T13:51:36;0.90;;;0.90;;
3755;SDS011;1893;52.526;13.360;2022-07-04T13:54:02;1.50;;;0.80;;
3755;SDS011;1893;52.526;13.360;2022-07-04T13:56:28;0.90;;;0.80;;
3755;SDS011;1893;52.526;13.360;2022-07-04T13:58:53;1.67;;;0.90;;
3755;SDS011;1893;52.526;13.360;2022-07-04T14:01:19;1.37;;;1.10;;
3755;SDS011;1893;52.526;13.360;2022-07-04T14:03:46;1.17;;;0.90;;
3755;SDS011;1893;52.526;13.360;2022-07-04T14:06:12;0.83;;;0.83;;
3755;SDS011;1893;52.526;13.360;2022-07-04T14:08:38;1.07;;;0.97;;
3755;SDS011;1893;52.526;13.360;2022-07-04T14:11:04;1.67;;;0.90;;
3755;SDS011;1893;52.526;13.360;2022-07-04T14:13:29;1.73;;;1.10;;
3755;SDS011;1893;52.526;13.360;2022-07-04T14:15:55;2.27;;;1.00;;
3755;SDS011;1893;52.526;13.360;2022-07-04T14:18:21;2.33;;;0.83;;
3755;SDS011;1893;52.526;13.360;2022-07-04T14:20:47;1.17;;;1.07;;
3755;SDS011;1893;52.526;13.360;2022-07-04T14:23:14;2.20;;;1.93;;
3755;SDS011;1893;52.526;13.360;2022-07-04T14:26:00;1.30;;;1.20;;
3755;SDS011;1893;52.526;13.360;2022-07-04T14:28:25;1.37;;;1.00;;
3755;SDS011;1893;52.526;13.360;2022-07-04T14:30:51;1.53;;;0.90;;
3755;SDS011;1893;52.526;13.360;2022-07-04T14:33:16;4.00;;;0.90;;
3755;SDS011;1893;52.526;13.360;2022-07-04T14:35:42;1.00;;;0.87;;
3755;SDS011;1893;52.526;13.360;2022-07-04T14:38:07;2.60;;;0.83;;
3755;SDS011;1893;52.526;13.360;2022-07-04T14:40:33;0.80;;;0.77;;
3755;SDS011;1893;52.526;13.360;2022-07-04T14:42:58;1.13;;;0.90;;
3755;SDS011;1893;52.526;13.360;2022-07-04T14:45:24;1.10;;;1.00;;
3755;SDS011;1893;52.526;13.360;2022-07-04T14:47:50;1.00;;;1.00;;
3755;SDS011;1893;52.526;13.360;2022-07-04T14:50:15;1.10;;;1.00;;
3755;SDS011;1893;52.526;13.360;2022-07-04T14:52:41;1.53;;;1.00;;
3755;SDS011;1893;52.526;13.360;2022-07-04T14:55:06;1.90;;;0.93;;
3755;SDS011;1893;52.526;13.360;2022-07-04T14:57:32;1.27;;;1.17;;
3755;SDS011;1893;52.526;13.360;2022-07-04T14:59:57;1.10;;;1.00;;
3755;SDS011;1893;52.526;13.360;2022-07-04T15:02:23;2.17;;;1.10;;
3755;SDS011;1893;52.526;13.360;2022-07-04T15:04:48;0.87;;;0.87;;
3755;SDS011;1893;52.526;13.360;2022-07-04T15:07:14;1.73;;;0.90;;
3755;SDS011;1893;52.526;13.360;2022-07-04T15:09:40;1.10;;;1.00;;
3755;SDS011;1893;52.526;13.360;2022-07-04T15:12:06;1.20;;;1.10;;
3755;SDS011;1893;52.526;13.360;2022-07-04T15:14:32;2.57;;;1.00;;
3755;SDS011;1893;52.526;13.360;2022-07-04T15:16:57;1.63;;;1.20;;
3755;SDS011;1893;52.526;13.360;2022-07-04T15:19:24;4.33;;;1.20;;
3755;SDS011;1893;52.526;13.360;2022-07-04T15:21:49;2.00;;;1.00;;
3755;SDS011;1893;52.526;13.360;2022-07-04T15:24:34;1.10;;;1.00;;
3755;SDS011;1893;52.526;13.360;2022-07-04T15:26:59;1.10;;;1.00;;